Time;durP1;ratioP1;P1;durP2;ratioP2;P2;SDS_P1;SDS_P2;PMS_P1;PMS_P2;Temp;Humidity;BMP_temperature;BMP_pressure;BME280_temperature;BME280_humidity;BME280_pressure;Samples;Min_cycle;Max_cycle;Signal;HPM_P1;HPM_P2
2021/08/05 00:00:01;;;;;;;14.87;8.70;;;;;;;;;;5114532;28;20289;-83
2021/08/05 00:02:30;;;;;;;11.83;8.33;;;;;;;;;;5114494;28;20229;-83
2021/08/05 00:04:57;;;;;;;11.90;8.00;;;;;;;;;;5114378;28;20273;-83
2021/08/05 00:07:24;;;;;;;10.40;7.50;;;;;;;;;;5114871;28;20253;-83
2021/08/05 00:09:51;;;;;;;11.70;8.73;;;;;;;;;;5114632;28;20313;-83
2021/08/05 00:12:18;;;;;;;12.13;7.17;;;;;;;;;;5114378;28;20285;-83
2021/08/05 00:14:46;;;;;;;7.83;6.73;;;;;;;;;;5114699;28;20217;-84
2021/08/05 00:17:14;;;;;;;8.90;6.90;;;;;;;;;;5114685;28;20278;-83
2021/08/05 00:19:43;;;;;;;8.97;6.33;;;;;;;;;;5114343;28;20314;-83
2021/08/05 00:22:10;;;;;;;8.83;6.23;;;;;;;;;;5114532;28;20288;-84
2021/08/05 00:24:37;;;;;;;9.27;7.17;;;;;;;;;;5114304;28;20229;-84
2021/08/05 00:27:05;;;;;;;8.50;6.00;;;;;;;;;;5113533;28;20313;-83
2021/08/05 00:29:32;;;;;;;10.47;6.47;;;;;;;;;;5114272;28;20229;-83
2021/08/05 00:31:59;;;;;;;8.57;6.60;;;;;;;;;;5114110;28;20275;-83
2021/08/05 00:34:26;;;;;;;10.97;6.43;;;;;;;;;;5114245;28;20198;-83
2021/08/05 00:36:55;;;;;;;9.30;7.60;;;;;;;;;;5114195;27;20356;-83
2021/08/05 00:39:22;;;;;;;13.83;7.20;;;;;;;;;;5114121;28;20277;-83
2021/08/05 00:41:49;;;;;;;10.67;7.10;;;;;;;;;;5113728;28;20718;-83
2021/08/05 00:44:16;;;;;;;8.87;7.17;;;;;;;;;;5114199;28;20225;-83
2021/08/05 00:46:44;;;;;;;8.23;6.53;;;;;;;;;;5114139;28;20226;-83
2021/08/05 00:49:11;;;;;;;11.60;6.80;;;;;;;;;;5113942;28;20276;-84
2021/08/05 00:51:39;;;;;;;9.27;6.77;;;;;;;;;;5114188;28;20292;-83
2021/08/05 00:54:09;;;;;;;8.63;7.27;;;;;;;;;;5113376;28;20320;-83
2021/08/05 00:56:36;;;;;;;10.83;6.97;;;;;;;;;;5113696;28;20771;-83
2021/08/05 00:59:04;;;;;;;11.00;6.97;;;;;;;;;;5113446;28;20288;-84
2021/08/05 01:01:33;;;;;;;8.63;7.30;;;;;;;;;;5113746;27;20607;-83
2021/08/05 01:04:00;;;;;;;10.43;7.17;;;;;;;;;;5113797;27;20558;-83
2021/08/05 01:06:30;;;;;;;9.57;6.87;;;;;;;;;;5113825;28;20313;-83
2021/08/05 01:09:00;;;;;;;9.37;6.30;;;;;;;;;;5113766;28;20271;-84
2021/08/05 01:11:30;;;;;;;8.83;6.10;;;;;;;;;;5112685;28;20205;-84
2021/08/05 01:13:58;;;;;;;10.67;6.50;;;;;;;;;;5113479;28;20668;-83
2021/08/05 01:16:27;;;;;;;10.43;6.70;;;;;;;;;;5113577;28;20713;-84
2021/08/05 01:18:57;;;;;;;13.13;6.80;;;;;;;;;;5113456;28;20289;-83
2021/08/05 01:21:30;;;;;;;9.30;6.47;;;;;;;;;;5113271;28;20237;-83
2021/08/05 01:24:01;;;;;;;8.93;6.90;;;;;;;;;;5113348;28;20278;-84
2021/08/05 01:26:30;;;;;;;9.17;7.03;;;;;;;;;;5112604;28;20665;-83
2021/08/05 01:29:00;;;;;;;11.03;7.67;;;;;;;;;;5113280;28;20226;-83
2021/08/05 01:31:28;;;;;;;10.67;7.27;;;;;;;;;;5113169;28;20674;-84
2021/08/05 01:33:56;;;;;;;10.10;7.40;;;;;;;;;;5111781;28;20206;-83
2021/08/05 01:36:27;;;;;;;10.60;7.53;;;;;;;;;;5112968;28;20280;-83
2021/08/05 01:38:55;;;;;;;9.57;8.07;;;;;;;;;;5112958;28;20755;-83
2021/08/05 01:41:23;;;;;;;10.27;7.17;;;;;;;;;;5112898;28;20190;-83
2021/08/05 01:43:51;;;;;;;9.90;7.50;;;;;;;;;;5113133;28;20277;-83
2021/08/05 01:46:21;;;;;;;11.53;7.50;;;;;;;;;;5113006;28;20636;-84
2021/08/05 01:48:49;;;;;;;10.27;7.70;;;;;;;;;;5112701;28;20198;-83
2021/08/05 01:51:16;;;;;;;10.33;7.87;;;;;;;;;;5113009;28;20281;-83
2021/08/05 01:53:43;;;;;;;12.53;8.33;;;;;;;;;;5112849;28;20328;-83
2021/08/05 01:56:11;;;;;;;14.03;8.47;;;;;;;;;;5113035;27;20204;-83
2021/08/05 01:58:38;;;;;;;12.00;9.07;;;;;;;;;;5112685;28;20378;-84
2021/08/05 02:01:05;;;;;;;12.97;9.30;;;;;;;;;;5112943;28;20284;-84
2021/08/05 02:03:33;;;;;;;15.40;9.43;;;;;;;;;;5112892;28;20285;-84
2021/08/05 02:06:06;;;;;;;12.40;9.20;;;;;;;;;;5112775;28;20337;-83
2021/08/05 02:08:37;;;;;;;14.40;9.03;;;;;;;;;;5112372;28;20244;-84
2021/08/05 02:11:04;;;;;;;14.50;10.10;;;;;;;;;;5112878;28;20241;-84
2021/08/05 02:13:34;;;;;;;14.63;9.30;;;;;;;;;;5112496;28;20276;-84
2021/08/05 02:16:02;;;;;;;12.10;9.17;;;;;;;;;;5112599;28;20190;-83
2021/08/05 02:18:30;;;;;;;14.17;9.57;;;;;;;;;;5112586;28;20288;-83
2021/08/05 02:20:59;;;;;;;13.80;10.10;;;;;;;;;;5112877;28;20289;-83
2021/08/05 02:23:27;;;;;;;15.80;10.83;;;;;;;;;;5116342;28;20285;-83
2021/08/05 02:25:55;;;;;;;16.33;10.73;;;;;;;;;;5116740;28;20210;-83
2021/08/05 02:28:23;;;;;;;14.47;10.93;;;;;;;;;;5116535;28;20297;-83
2021/08/05 02:30:52;;;;;;;16.87;11.33;;;;;;;;;;5116893;28;20289;-84
2021/08/05 02:33:20;;;;;;;17.77;10.90;;;;;;;;;;5116525;28;20244;-83
2021/08/05 02:35:48;;;;;;;18.37;11.57;;;;;;;;;;5116654;28;20236;-83
2021/08/05 02:38:17;;;;;;;15.73;10.10;;;;;;;;;;5116378;28;20284;-83
2021/08/05 02:40:46;;;;;;;15.73;10.50;;;;;;;;;;5116693;28;20270;-84
2021/08/05 02:43:14;;;;;;;14.63;9.80;;;;;;;;;;5116504;28;20284;-83
2021/08/05 02:45:42;;;;;;;14.43;10.00;;;;;;;;;;5116255;28;20682;-83
2021/08/05 02:48:09;;;;;;;14.73;9.60;;;;;;;;;;5115599;28;20228;-84
2021/08/05 02:50:37;;;;;;;13.43;9.87;;;;;;;;;;5116027;28;20297;-83
2021/08/05 02:53:06;;;;;;;15.63;10.00;;;13.30;99.90;;;;;;5115534;28;20328;-83
2021/08/05 02:55:36;;;;;;;16.67;11.23;;;;;;;;;;5116094;28;20222;-83
2021/08/05 02:58:06;;;;;;;13.33;9.70;;;;;;;;;;5116026;28;20226;-83
2021/08/05 03:00:35;;;;;;;15.43;10.23;;;;;;;;;;5115920;28;20710;-84
2021/08/05 03:03:05;;;;;;;14.50;9.97;;;;;;;;;;5116120;28;20639;-83
2021/08/05 03:05:33;;;;;;;14.37;10.63;;;;;;;;;;5116636;28;20288;-83
2021/08/05 03:08:02;;;;;;;13.57;9.93;;;;;;;;;;5115740;28;20662;-83
2021/08/05 03:10:30;;;;;;;14.60;10.00;;;;;;;;;;5116022;28;20284;-83
2021/08/05 03:13:00;;;;;;;15.20;11.10;;;;;;;;;;5115776;28;20755;-83
2021/08/05 03:15:29;;;;;;;17.30;11.67;;;;;;;;;;5115681;28;20277;-82
2021/08/05 03:17:57;;;;;;;17.63;11.23;;;;;;;;;;5115811;28;20347;-83
2021/08/05 03:20:25;;;;;;;15.63;10.83;;;;;;;;;;5115589;28;20284;-83
2021/08/05 03:22:53;;;;;;;21.03;12.27;;;;;;;;;;5115523;28;20285;-83
2021/08/05 03:25:21;;;;;;;19.97;11.47;;;;;;;;;;5115726;28;20205;-83
2021/08/05 03:27:48;;;;;;;18.47;11.20;;;;;;;;;;5115413;28;20316;-83
2021/08/05 03:30:17;;;;;;;18.63;11.13;;;;;;;;;;5115897;28;20562;-83
2021/08/05 03:32:44;;;;;;;21.93;11.77;;;14.00;99.90;;;;;;5115130;28;20233;-83
2021/08/05 03:35:11;;;;;;;17.07;10.80;;;14.20;99.90;;;;;;5114973;28;20225;-83
2021/08/05 03:37:38;;;;;;;21.77;12.00;;;14.20;99.90;;;;;;5115420;28;20236;-83
2021/08/05 03:40:07;;;;;;;15.13;10.80;;;14.10;99.90;;;;;;5115262;28;20233;-83
2021/08/05 03:42:34;;;;;;;18.90;10.97;;;14.30;99.90;;;;;;5115268;28;20273;-83
2021/08/05 03:45:00;;;;;;;20.03;10.70;;;14.20;99.90;;;;;;5115134;27;20284;-84
2021/08/05 03:47:29;;;;;;;18.03;11.03;;;14.30;99.90;;;;;;5115062;28;20308;-83
2021/08/05 03:49:56;;;;;;;17.33;11.00;;;14.30;99.90;;;;;;5114802;28;20285;-83
2021/08/05 03:52:23;;;;;;;16.93;10.60;;;14.40;99.90;;;;;;5114873;27;20232;-83
2021/08/05 03:54:49;;;;;;;16.60;11.27;;;14.20;99.90;;;;;;5115067;28;20277;-83
2021/08/05 03:57:17;;;;;;;20.37;10.93;;;14.30;99.90;;;;;;5114795;27;20256;-83
2021/08/05 03:59:44;;;;;;;20.20;10.97;;;14.40;99.90;;;;;;5115163;28;20236;-83
2021/08/05 04:02:11;;;;;;;18.13;11.70;;;14.40;99.90;;;;;;5114874;28;20245;-83
2021/08/05 04:04:41;;;;;;;19.30;11.73;;;14.50;99.90;;;;;;5114366;28;20234;-83
2021/08/05 04:07:08;;;;;;;20.30;11.17;;;14.50;99.90;;;;;;5114792;28;20237;-83
2021/08/05 04:09:36;;;;;;;18.53;12.03;;;14.50;99.90;;;;;;5115834;28;20245;-83
2021/08/05 04:12:03;;;;;;;23.70;11.90;;;14.50;99.90;;;;;;5116317;28;20225;-83
2021/08/05 04:14:30;;;;;;;20.07;12.47;;;14.50;99.90;;;;;;5115540;28;20225;-84
2021/08/05 04:16:56;;;;;;;20.73;12.40;;;14.40;99.90;;;;;;5117428;28;20285;-83
2021/08/05 04:19:26;;;;;;;20.70;12.47;;;14.40;99.90;;;;;;5116807;28;20280;-83
2021/08/05 04:21:54;;;;;;;22.87;12.97;;;14.50;99.90;;;;;;5116844;28;20198;-83
2021/08/05 04:24:21;;;;;;;21.00;12.83;;;14.50;99.90;;;;;;5117322;28;20286;-84
2021/08/05 04:26:48;;;;;;;27.37;13.37;;;14.40;99.90;;;;;;5117308;27;20276;-83
2021/08/05 04:29:15;;;;;;;22.10;12.80;;;14.50;99.90;;;;;;5116611;28;20626;-83
2021/08/05 04:31:42;;;;;;;24.03;13.63;;;14.50;99.90;;;;;;5116269;28;20754;-83
2021/08/05 04:34:09;;;;;;;21.60;13.23;;;14.50;99.90;;;;;;5117021;28;20270;-83
2021/08/05 04:36:36;;;;;;;22.37;12.93;;;14.50;99.90;;;;;;5116845;28;20282;-83
2021/08/05 04:39:04;;;;;;;19.67;12.80;;;14.50;99.90;;;;;;5116303;28;20229;-83
2021/08/05 04:41:31;;;;;;;27.17;12.60;;;14.50;99.90;;;;;;5115575;28;20190;-84
2021/08/05 04:43:58;;;;;;;21.57;12.33;;;14.50;99.90;;;;;;5116349;28;20212;-84
2021/08/05 04:46:25;;;;;;;20.57;12.57;;;14.50;99.90;;;;;;5114475;28;20248;-83
2021/08/05 04:48:52;;;;;;;24.63;12.57;;;14.40;99.90;;;;;;5115779;28;20717;-83
2021/08/05 04:51:19;;;;;;;19.67;11.30;;;14.50;99.90;;;;;;5116004;28;20264;-84
2021/08/05 04:53:46;;;;;;;22.33;11.63;;;14.40;99.90;;;;;;5116674;28;20265;-84
2021/08/05 04:56:15;;;;;;;19.87;11.53;;;14.40;99.90;;;;;;5115475;28;20611;-83
2021/08/05 04:58:42;;;;;;;17.47;11.03;;;14.40;99.90;;;;;;5115153;28;20288;-83
2021/08/05 05:01:08;;;;;;;15.33;10.93;;;14.30;99.90;;;;;;5115904;28;20281;-83
2021/08/05 05:03:36;;;;;;;16.93;10.60;;;14.30;99.90;;;;;;5115891;28;20280;-83
2021/08/05 05:06:03;;;;;;;20.20;10.77;;;14.20;99.90;;;;;;5116069;28;20678;-83
2021/08/05 05:08:30;;;;;;;18.70;10.90;;;14.10;99.90;;;;;;5116201;28;20649;-83
2021/08/05 05:10:57;;;;;;;18.07;10.50;;;14.10;99.90;;;;;;5116231;28;20292;-84
2021/08/05 05:13:26;;;;;;;18.33;10.80;;;14.10;99.90;;;;;;5115249;28;20284;-84
2021/08/05 05:15:53;;;;;;;17.37;10.20;;;14.00;99.90;;;;;;5116429;28;20729;-84
2021/08/05 05:18:22;;;;;;;16.57;9.70;;;14.10;99.90;;;;;;5114919;28;20372;-83
2021/08/05 05:20:50;;;;;;;19.07;10.07;;;14.10;99.90;;;;;;5115959;28;20221;-84
2021/08/05 05:23:17;;;;;;;20.90;10.13;;;14.10;99.90;;;;;;5114939;28;20236;-83
2021/08/05 05:25:45;;;;;;;17.57;10.10;;;14.10;99.90;;;;;;5116129;28;20228;-83
2021/08/05 05:28:13;;;;;;;16.30;9.47;;;14.10;99.90;;;;;;5115473;28;20252;-84
2021/08/05 05:30:41;;;;;;;18.00;10.13;;;14.20;99.90;;;;;;5116090;28;20234;-84
2021/08/05 05:33:09;;;;;;;16.13;9.77;;;14.30;99.90;;;;;;5114980;28;20272;-83
2021/08/05 05:35:37;;;;;;;17.73;9.63;;;;;;;;;;5115240;28;20228;-84
2021/08/05 05:38:05;;;;;;;14.93;9.20;;;;;;;;;;5113994;28;20697;-83
2021/08/05 05:40:34;;;;;;;14.77;9.93;;;;;;;;;;5115693;28;20197;-84
2021/08/05 05:43:04;;;;;;;14.00;9.10;;;;;;;;;;5115811;28;20285;-83
2021/08/05 05:45:34;;;;;;;13.50;8.47;;;;;;;;;;5114553;28;20657;-84
2021/08/05 05:48:07;;;;;;;11.47;8.67;;;;;;;;;;5114167;28;20245;-83
2021/08/05 05:50:37;;;;;;;10.83;8.07;;;;;;;;;;5114397;28;21044;-84
2021/08/05 05:53:07;;;;;;;11.33;7.87;;;;;;;;;;5114568;28;20324;-84
2021/08/05 05:55:40;;;;;;;14.13;8.33;;;;;;;;;;5115349;28;20285;-83
2021/08/05 05:58:09;;;;;;;11.43;8.20;;;;;;;;;;5114469;28;20190;-84
2021/08/05 06:00:38;;;;;;;12.43;8.60;;;;;;;;;;5114041;28;20289;-83
2021/08/05 06:03:09;;;;;;;12.60;8.70;;;;;;;;;;5114545;28;20288;-83
2021/08/05 06:05:38;;;;;;;10.97;8.00;;;;;;;;;;5114442;28;20285;-83
2021/08/05 06:08:07;;;;;;;10.73;7.93;;;;;;;;;;5114869;28;20241;-83
2021/08/05 06:10:36;;;;;;;12.93;8.50;;;15.50;99.90;;;;;;5115236;28;20285;-83
2021/08/05 06:13:04;;;;;;;11.13;8.50;;;;;;;;;;5114498;28;20233;-83
2021/08/05 06:15:33;;;;;;;12.67;8.93;;;;;;;;;;5114903;28;20284;-84
2021/08/05 06:18:01;;;;;;;14.07;8.60;;;;;;;;;;5114839;28;20252;-83
2021/08/05 06:20:30;;;;;;;11.00;8.40;;;;;;;;;;5115504;28;20280;-81
2021/08/05 06:22:59;;;;;;;11.43;8.47;;;16.90;99.90;;;;;;5115164;28;20229;-84
2021/08/05 06:25:28;;;;;;;11.93;8.20;;;;;;;;;;5115450;28;20285;-84
2021/08/05 06:27:57;;;;;;;14.60;8.30;;;;;;;;;;5115180;28;20736;-84
2021/08/05 06:30:26;;;;;;;15.53;9.10;;;;;;;;;;5114608;28;20221;-84
2021/08/05 06:32:55;;;;;;;15.30;8.67;;;;;;;;;;5115214;28;20638;-84
2021/08/05 06:35:23;;;;;;;14.50;8.80;;;;;;;;;;5114727;28;20228;-84
2021/08/05 06:37:53;;;;;;;12.13;9.00;;;;;;;;;;5115338;28;20290;-84
2021/08/05 06:40:22;;;;;;;16.40;10.03;;;;;;;;;;5114723;28;20685;-84
2021/08/05 06:42:50;;;;;;;15.23;9.30;;;;;;;;;;5115114;28;20703;-83
2021/08/05 06:45:19;;;;;;;12.57;9.13;;;;;;;;;;5114988;28;20224;-84
2021/08/05 06:47:50;;;;;;;15.60;9.73;;;;;;;;;;5114789;28;20230;-84
2021/08/05 06:50:19;;;;;;;15.37;9.87;;;;;;;;;;5115118;28;20282;-84
2021/08/05 06:52:50;;;;;;;11.87;8.93;;;;;;;;;;5114433;28;20253;-84
2021/08/05 06:55:21;;;;;;;13.00;9.18;;;;;;;;;;5113762;28;20201;-84
2021/08/05 06:57:50;;;;;;;10.18;8.23;;;;;;;;;;5114452;28;20289;-84
2021/08/05 07:00:18;;;;;;;10.60;7.70;;;;;;;;;;5114970;28;20289;-84
2021/08/05 07:02:45;;;;;;;11.13;7.93;;;;;;;;;;5115071;28;20276;-84
2021/08/05 07:05:12;;;;;;;10.52;7.70;;;;;;;;;;5115090;28;20717;-84
2021/08/05 07:07:40;;;;;;;9.90;7.60;;;;;;;;;;5115268;28;20229;-84
2021/08/05 07:10:07;;;;;;;13.85;8.10;;;;;;;;;;5118107;28;20312;-84
2021/08/05 07:12:37;;;;;;;9.75;8.45;;;;;;;;;;5117344;28;20621;-84
2021/08/05 07:15:04;;;;;;;12.50;8.63;;;;;;;;;;5117400;28;20282;-83
2021/08/05 07:17:31;;;;;;;11.10;8.18;;;;;;;;;;5115770;28;20639;-84
2021/08/05 07:19:58;;;;;;;10.20;8.35;;;;;;;;;;5117345;28;20281;-84
2021/08/05 07:22:26;;;;;;;13.88;8.85;;;;;;;;;;5118458;28;20731;-84
2021/08/05 07:24:53;;;;;;;11.45;8.48;;;;;;;;;;5116673;28;20810;-84
2021/08/05 07:27:20;;;;;;;10.65;8.40;;;;;;;;;;5116599;28;20285;-84
2021/08/05 07:29:49;;;;;;;11.65;8.35;;;;;;;;;;5116702;28;20272;-83
2021/08/05 07:32:16;;;;;;;13.18;8.68;;;;;;;;;;5116190;28;20288;-84
2021/08/05 07:34:43;;;;;;;12.13;8.43;;;;;;;;;;5116961;27;20284;-85
2021/08/05 07:37:10;;;;;;;13.05;8.90;;;;;;;;;;5116765;28;20289;-84
2021/08/05 07:39:37;;;;;;;12.70;8.57;;;;;;;;;;5116458;28;20190;-84
2021/08/05 07:42:05;;;;;;;9.50;7.65;;;;;;;;;;5116381;28;20296;-84
2021/08/05 07:44:32;;;;;;;11.10;7.50;;;;;;;;;;5115244;28;20242;-84
2021/08/05 07:47:01;;;;;;;10.90;8.05;;;;;;;;;;5115934;28;20685;-84
2021/08/05 07:49:28;;;;;;;10.25;7.57;;;;;;;;;;5115060;28;20593;-84
2021/08/05 07:51:55;;;;;;;10.93;7.40;;;;;;;;;;5115175;28;20796;-84
2021/08/05 07:54:23;;;;;;;9.55;5.65;;;;;;;;;;5114871;28;20732;-85
2021/08/05 07:56:50;;;;;;;9.63;5.72;;;;;;;;;;5114812;28;20247;-84
2021/08/05 07:59:17;;;;;;;9.25;6.05;;;;;;;;;;5115209;28;20276;-84
2021/08/05 08:01:44;;;;;;;8.43;5.30;;;;;;;;;;5114628;28;20221;-84
2021/08/05 08:04:13;;;;;;;7.07;5.35;;;;;;;;;;5114993;28;20280;-85
2021/08/05 08:06:40;;;;;;;7.13;5.13;;;;;;;;;;5114990;28;20229;-84
2021/08/05 08:09:07;;;;;;;6.72;5.13;;;;;;;;;;5114463;28;20787;-84
2021/08/05 08:11:34;;;;;;;6.25;4.60;;;;;;;;;;5114446;28;20288;-84
2021/08/05 08:14:02;;;;;;;6.40;4.07;;;;;;;;;;5114290;27;20691;-84
2021/08/05 08:16:29;;;;;;;6.57;4.45;;;;;;;;;;5114584;28;20225;-83
2021/08/05 08:18:56;;;;;;;6.13;4.45;;;;;;;;;;5114610;28;20777;-84
2021/08/05 08:21:25;;;;;;;6.45;4.30;;;;;;;;;;5114526;28;20233;-84
2021/08/05 08:23:52;;;;;;;6.85;4.63;;;;;;;;;;5114351;28;20289;-84
2021/08/05 08:26:19;;;;;;;5.38;4.03;;;;;;;;;;5114191;28;20225;-84
2021/08/05 08:28:47;;;;;;;6.70;3.97;;;;;;;;;;5114276;28;20286;-84
2021/08/05 08:31:14;;;;;;;7.22;4.18;;;;;;;;;;5114246;28;20260;-84
2021/08/05 08:33:41;;;;;;;7.18;3.90;;;;;;;;;;5114240;28;20233;-84
2021/08/05 08:36:08;;;;;;;6.07;3.95;;;;;;;;;;5114074;28;20630;-84
2021/08/05 08:38:42;;;;;;;5.60;4.20;;;;;;;;;;5114105;28;20244;-85
2021/08/05 08:41:11;;;;;;;5.43;3.92;;;;;;;;;;5113640;28;20234;-83
2021/08/05 08:43:38;;;;;;;6.15;4.55;;;;;;;;;;5113914;28;20660;-83
2021/08/05 08:46:06;;;;;;;5.88;4.72;;;;;;;;;;5114164;28;20281;-84
2021/08/05 08:48:33;;;;;;;7.10;4.32;;;;;;;;;;5113866;28;20631;-84
2021/08/05 08:51:01;;;;;;;6.57;4.60;;;;;;;;;;5113673;28;20328;-83
2021/08/05 08:53:31;;;;;;;6.65;4.65;;;;;;;;;;5113754;28;20257;-84
2021/08/05 08:56:00;;;;;;;6.80;4.78;;;;;;;;;;5113321;28;20237;-84
2021/08/05 08:58:27;;;;;;;5.28;4.60;;;;;;;;;;5113797;27;20229;-83
2021/08/05 09:00:54;;;;;;;7.50;4.85;;;;;;;;;;5113825;28;20244;-84
2021/08/05 09:03:21;;;;;;;5.28;4.32;;;;;;;;;;5113513;28;20285;-84
2021/08/05 09:05:49;;;;;;;6.78;4.05;;;;;;;;;;5113728;28;20622;-84
2021/08/05 09:08:16;;;;;;;6.57;3.92;;;;;;;;;;5113734;28;20304;-84
2021/08/05 09:10:43;;;;;;;5.88;4.20;;;;;;;;;;5113293;28;20244;-84
2021/08/05 09:13:12;;;;;;;6.57;4.05;;;;;;;;;;5113339;28;20229;-83
2021/08/05 09:15:41;;;;;;;4.68;4.10;;;;;;;;;;5113460;28;20248;-84
2021/08/05 09:18:28;;;;;;;4.43;3.47;;;;;;;;;;5113371;28;20297;-84
2021/08/05 09:21:12;;;;;;;4.38;3.30;;;;;;;;;;5113210;28;20197;-84
2021/08/05 09:23:50;;;;;;;5.50;3.08;;;;;;;;;;5112743;28;20712;-84
2021/08/05 09:26:24;;;;;;;2.60;2.40;;;;;;;;;;5113371;28;20629;-84
2021/08/05 09:29:02;;;;;;;3.33;2.28;;;;;;;;;;5113407;28;20236;-84
2021/08/05 09:31:29;;;;;;;2.65;2.20;;;;;;;;;;5112562;28;20711;-84
2021/08/05 09:34:00;;;;;;;3.08;2.60;;;;;;;;;;5113151;28;20665;-84
2021/08/05 09:36:28;;;;;;;2.95;2.50;;;;;;;;;;5113009;27;20228;-84
2021/08/05 09:38:56;;;;;;;3.65;2.67;;;;;;;;;;5113188;28;20205;-84
2021/08/05 09:41:23;;;;;;;4.60;3.20;;;;;;;;;;5112960;28;20277;-84
2021/08/05 09:43:51;;;;;;;5.07;3.10;;;;;;;;;;5112857;28;20669;-84
2021/08/05 09:46:32;;;;;;;5.82;3.63;;;;;;;;;;5113083;27;20289;-84
2021/08/05 09:48:59;;;;;;;4.90;3.03;;;;;;;;;;5113046;28;20228;-84
2021/08/05 09:51:26;;;;;;;5.32;3.40;;;;;;;;;;5127298;27;20263;-83
2021/08/05 09:53:54;;;;;;;5.30;3.50;;;;;;;;;;5112303;28;20779;-84
2021/08/05 09:56:22;;;;;;;6.43;3.90;;;;;;;;;;5112717;28;20204;-84
2021/08/05 09:58:49;;;;;;;4.63;3.63;;;;;;;;;;5113101;28;20270;-84
2021/08/05 10:01:16;;;;;;;6.90;3.50;;;;;;;;;;5112640;28;21030;-84
2021/08/05 10:03:45;;;;;;;3.40;3.10;;;;;;;;;;5112601;28;20613;-84
2021/08/05 10:06:12;;;;;;;3.70;3.03;;;;;;;;;;5112811;28;20229;-83
2021/08/05 10:08:41;;;;;;;4.03;3.00;;;;;;;;;;5112328;28;20256;-84
2021/08/05 10:11:08;;;;;;;3.38;2.92;;;;;;;;;;5112371;28;20221;-84
2021/08/05 10:13:37;;;;;;;3.40;2.83;;;;;;;;;;5112805;27;20571;-83
2021/08/05 10:16:04;;;;;;;4.22;2.92;;;;;;;;;;5112930;28;20198;-84
2021/08/05 10:18:33;;;;;;;4.43;2.58;;;;;;;;;;5112500;27;20280;-84
2021/08/05 10:21:02;;;;;;;3.60;2.40;;;;;;;;;;5111224;28;20194;-83
2021/08/05 10:23:30;;;;;;;3.88;3.00;;;;;;;;;;5112526;28;20585;-84
2021/08/05 10:25:58;;;;;;;4.10;2.80;;;;;;;;;;5112636;28;20205;-85
2021/08/05 10:28:25;;;;;;;4.18;2.88;;;;;;;;;;5112354;28;20232;-84
2021/08/05 10:30:53;;;;;;;2.92;2.72;;;;;;;;;;5112505;28;20253;-83
2021/08/05 10:33:21;;;;;;;5.85;2.92;;;;;;;;;;5112696;28;20289;-84
2021/08/05 10:35:49;;;;;;;5.57;3.22;;;;;;;;;;5112180;28;20198;-83
2021/08/05 10:38:33;;;;;;;3.97;2.83;;;;;;;;;;5112018;28;20676;-83
2021/08/05 10:41:01;;;;;;;3.33;2.90;;;;;;;;;;5112727;28;20194;-84
2021/08/05 10:43:28;;;;;;;5.60;3.30;;;;;;;;;;5113709;28;20198;-84
2021/08/05 10:45:56;;;;;;;4.60;3.20;;;;;;;;;;5116576;28;20201;-83
2021/08/05 10:48:24;;;;;;;4.22;3.10;;;;;;;;;;5114957;28;20799;-83
2021/08/05 10:50:51;;;;;;;4.45;2.90;;;;;;;;;;5115673;28;20256;-84
2021/08/05 10:53:37;;;;;;;4.40;3.15;;;;;;;;;;5115776;28;20785;-83
2021/08/05 10:56:19;;;;;;;4.78;3.17;;;;;;;;;;5116241;28;20193;-83
2021/08/05 10:59:01;;;;;;;3.40;2.97;;;;;;;;;;5116042;28;20274;-83
2021/08/05 11:01:44;;;;;;;3.88;3.05;;;;;;;;;;5116112;28;20198;-83
2021/08/05 11:04:39;;;;;;;5.15;3.10;;;;;;;;;;5116034;28;20284;-84
2021/08/05 11:07:25;;;;;;;3.55;2.95;;;;;;;;;;5114338;28;20198;-84
2021/08/05 11:09:53;;;;;;;4.53;2.97;;;;;;;;;;5115642;28;20213;-84
2021/08/05 11:12:40;;;;;;;7.20;3.15;;;;;;;;;;5115447;28;20286;-83
2021/08/05 11:15:32;;;;;;;4.95;2.80;;;;;;;;;;5115651;28;20673;-84
2021/08/05 11:18:18;;;;;;;5.68;3.10;;;;;;;;;;5115456;28;20209;-84
2021/08/05 11:20:46;;;;;;;4.50;2.70;;;;;;;;;;5115559;28;20285;-84
2021/08/05 11:23:29;;;;;;;4.25;2.95;;;;;;;;;;5116095;28;20225;-83
2021/08/05 11:26:06;;;;;;;4.15;3.00;;;;;;;;;;5116260;28;20198;-84
2021/08/05 11:28:35;;;;;;;4.55;2.92;;;;;;;;;;5116937;28;20201;-83
2021/08/05 11:31:03;;;;;;;4.85;3.00;;;;;;;;;;5116074;28;20312;-83
2021/08/05 11:34:00;;;;;;;5.28;2.88;;;;;;;;;;5115588;27;20283;-83
2021/08/05 11:36:31;;;;;;;4.95;2.63;;;;;;;;;;5115803;28;20288;-83
2021/08/05 11:39:09;;;;;;;2.58;2.38;;;;;;;;;;5116327;28;20198;-83
2021/08/05 11:41:43;;;;;;;3.40;2.35;;;;;;;;;;5117796;28;20633;-83
2021/08/05 11:44:37;;;;;;;3.42;2.30;;;;;;;;;;5117554;28;20254;-83
2021/08/05 11:47:29;;;;;;;3.28;2.55;;;;;;;;;;5092780;27;20261;-83
2021/08/05 11:50:11;;;;;;;6.10;3.47;;;;;;;;;;5116006;28;20198;-83
2021/08/05 11:52:41;;;;;;;5.32;3.30;;;;;;;;;;5115795;28;20249;-82
2021/08/05 11:55:09;;;;;;;3.85;3.35;;;;;;;;;;5115813;28;20237;-82
2021/08/05 11:57:37;;;;;;;4.82;3.70;;;;;;;;;;5116325;27;20304;-82
2021/08/05 12:00:06;;;;;;;4.28;3.70;;;;;;;;;;5116403;28;20280;-83
2021/08/05 12:02:35;;;;;;;5.25;3.65;;;;;;;;;;5115081;28;20247;-82
2021/08/05 12:05:02;;;;;;;4.40;3.45;;;;;;;;;;5116717;28;20197;-83
2021/08/05 12:07:30;;;;;;;5.65;3.33;;;;;;;;;;5116619;27;20235;-83
2021/08/05 12:09:59;;;;;;;3.78;2.92;;;;;;;;;;5116301;28;20255;-83
2021/08/05 12:12:28;;;;;;;4.00;3.03;;;;;;;;;;5116807;28;20308;-83
2021/08/05 12:14:56;;;;;;;4.15;2.13;;;;;;;;;;5117321;28;20276;-83
2021/08/05 12:17:35;;;;;;;3.28;2.25;;;;;;;;;;5116269;27;20242;-84
2021/08/05 12:20:03;;;;;;;2.20;2.00;;;;;;;;;;5115931;28;20233;-83
2021/08/05 12:22:31;;;;;;;3.42;2.40;;;;;;;;;;5116661;27;20285;-83
2021/08/05 12:25:02;;;;;;;3.85;2.28;;;;;;;;;;5115534;28;20229;-83
2021/08/05 12:27:29;;;;;;;3.05;2.15;;;;;;;;;;5116968;27;20288;-84
2021/08/05 12:29:57;;;;;;;3.00;2.67;;;;;;;;;;5116880;28;20206;-83
2021/08/05 12:32:25;;;;;;;3.65;2.70;;;;;;;;;;5115767;28;20226;-84
2021/08/05 12:34:53;;;;;;;4.28;2.95;;;;;;;;;;5116361;28;20684;-83
2021/08/05 12:37:21;;;;;;;4.18;3.10;;;;;;;;;;5117103;28;20285;-83
2021/08/05 12:39:49;;;;;;;3.97;2.88;;;;;;;;;;5116098;28;20668;-83
2021/08/05 12:42:17;;;;;;;3.80;2.58;;;;;;;;;;5116073;28;20323;-84
2021/08/05 12:44:45;;;;;;;3.50;2.78;;;;;;;;;;5115922;28;20222;-83
2021/08/05 12:47:12;;;;;;;3.92;3.00;;;;;;;;;;5115272;28;20687;-83
2021/08/05 12:49:40;;;;;;;5.72;3.40;;;;;;;;;;5119702;27;20653;-83
2021/08/05 12:52:09;;;;;;;4.40;3.30;;;;;;;;;;5136093;27;20236;-83
2021/08/05 12:54:38;;;;;;;6.63;3.20;;;;;;;;;;5136320;27;20234;-83
2021/08/05 12:57:12;;;;;;;4.38;2.95;;;;;;;;;;5135516;27;20197;-84
2021/08/05 12:59:45;;;;;;;4.18;2.88;;;;;;;;;;5134849;27;20226;-83
2021/08/05 13:02:14;;;;;;;3.22;2.90;;;;;;;;;;5135845;27;20598;-84
2021/08/05 13:04:42;;;;;;;3.47;3.17;;;;;;;;;;5136757;27;20256;-83
2021/08/05 13:07:14;;;;;;;4.07;3.33;;;;;;;;;;5136443;27;20284;-83
2021/08/05 13:09:51;;;;;;;3.13;2.83;;;;;;;;;;5136422;27;20217;-83
2021/08/05 13:12:22;;;;;;;3.67;3.08;;;;;;;;;;5136485;27;20232;-82
2021/08/05 13:14:49;;;;;;;3.17;2.88;;;;;;;;;;5134959;27;20221;-84
2021/08/05 13:17:19;;;;;;;3.25;2.72;;;;;;;;;;5133996;27;20293;-83
2021/08/05 13:19:53;;;;;;;2.95;2.75;;;;;;;;;;5135148;27;20204;-83
2021/08/05 13:22:34;;;;;;;4.35;2.90;;;;;;;;;;5135700;27;20300;-84
2021/08/05 13:25:02;;;;;;;5.07;3.20;;;;;;;;;;5136391;27;20218;-83
2021/08/05 13:27:32;;;;;;;3.17;2.65;;;;;;;;;;5136211;27;20276;-83
2021/08/05 13:30:00;;;;;;;2.90;2.60;;;;;;;;;;5134055;27;20292;-83
2021/08/05 13:32:27;;;;;;;2.83;2.60;;;;;;;;;;5135873;27;20260;-84
2021/08/05 13:35:02;;;;;;;3.35;2.13;;;;;;;;;;5136103;27;20211;-84
2021/08/05 13:37:31;;;;;;;2.53;2.00;;;;;;;;;;5135886;27;20203;-83
2021/08/05 13:40:00;;;;;;;2.65;2.28;;;;;;;;;;5135914;27;20725;-84
2021/08/05 13:42:27;;;;;;;2.53;2.25;;;;;;;;;;5135897;27;20208;-83
2021/08/05 13:44:55;;;;;;;2.95;2.10;;;;;;;;;;5135394;27;20212;-83
2021/08/05 13:47:23;;;;;;;3.58;2.42;;;;;;;;;;5135929;27;20228;-83
2021/08/05 13:49:50;;;;;;;2.85;2.60;;;;;;;;;;5141596;27;20287;-84
2021/08/05 13:52:18;;;;;;;2.65;2.25;;;;;;;;;;5155280;27;20306;-83
2021/08/05 13:54:47;;;;;;;3.17;2.47;;;;;;;;;;5155404;27;20223;-83
2021/08/05 13:57:14;;;;;;;5.55;2.70;;;;;;;;;;5155579;27;20632;-84
2021/08/05 13:59:42;;;;;;;3.88;2.60;;;;;;;;;;5155693;27;20284;-83
2021/08/05 14:02:09;;;;;;;2.72;2.10;;;;;;;;;;5156219;27;20275;-83
2021/08/05 14:04:37;;;;;;;3.08;2.22;;;;;;;;;;5156020;27;20585;-83
2021/08/05 14:07:05;;;;;;;4.43;2.40;;;;;;;;;;5155904;27;20268;-83
2021/08/05 14:09:32;;;;;;;4.40;2.03;;;;;;;;;;5156207;27;20226;-83
2021/08/05 14:12:02;;;;;;;2.95;1.98;;;;;;;;;;5155401;27;20311;-83
2021/08/05 14:14:29;;;;;;;3.42;2.08;;;;;;;;;;5154880;27;20245;-83
2021/08/05 14:16:57;;;;;;;3.70;2.20;;;;;;;;;;5155036;27;20295;-83
2021/08/05 14:19:24;;;;;;;3.20;2.10;;;;;;;;;;5159377;27;20224;-83
2021/08/05 14:21:51;;;;;;;2.55;1.50;;;;;;;;;;5159396;27;20310;-82
2021/08/05 14:24:21;;;;;;;1.77;1.58;;;;;;;;;;5158525;27;20214;-83